^^
Station Historical Data
 
Daily Summary for September 20, 2018 Units:  Metric    English   Both
« Previous Day
Next Day »
Daily Weekly Monthly Yearly Custom
  Current: High: Low: Average:
Temperature: 11.9 °C -17.8 °C 9.6 °C 10.4 °C
Dew Point: 10.2 °C -17.8 °C 7.9 °C 8.9 °C
Humidity: 89 % Humidity % 84 % 90 %
Wind Speed: 0 km/h 0 km/h 0 km/h 0 km/h
Wind Gust: 0 km/h 0 km/h - -
Wind:Calm - - North
Pressure: 1023.9 hPa 0 hPa 1020.5 hPa -
Precipitation: 0 mm      
Historical Graphs
 
 
Tabular Data for September 20, 2018
Time Temperature Dew Point Pressure Wind Wind Speed Wind Gust Humidity Rainfall Rate (Hourly) solar Conditions
-17.8 °C -17.8 °C 0 hPa Calm     Humidity % 0 mm SoftwareType W/m2 Conditions
00:00 12.6 °C 10.1 °C 1020.5 hPa Calm     85 % 0 mm WeatherDisplay:10.37 W/m2 FEW
00:05 12.5 °C 10.1 °C 1020.5 hPa Calm     85 % 0 mm WeatherDisplay:10.37 W/m2 FEW
00:10 12.5 °C 10.1 °C 1020.5 hPa Calm     85 % 0 mm WeatherDisplay:10.37 W/m2 FEW
00:15 12.4 °C 10 °C 1020.5 hPa Calm     85 % 0 mm WeatherDisplay:10.37 W/m2 FEW
00:20 12.4 °C 9.8 °C 1020.5 hPa Calm     84 % 0 mm WeatherDisplay:10.37 W/m2 FEW
00:25 12.3 °C 9.7 °C 1020.5 hPa Calm     84 % 0 mm WeatherDisplay:10.37 W/m2 FEW
00:30 12.2 °C 9.6 °C 1020.5 hPa Calm     84 % 0 mm WeatherDisplay:10.37 W/m2 FEW
00:35 12.1 °C 9.5 °C 1020.5 hPa Calm     84 % 0 mm WeatherDisplay:10.37 W/m2 FEW
00:40 12 °C 9.4 °C 1020.9 hPa Calm     84 % 0 mm WeatherDisplay:10.37 W/m2 FEW
00:45 11.9 °C 9.3 °C 1020.9 hPa Calm     84 % 0 mm WeatherDisplay:10.37 W/m2 FEW
00:50 11.8 °C 9.2 °C 1021.2 hPa Calm     84 % 0 mm WeatherDisplay:10.37 W/m2 FEW
00:55 11.8 °C 9.2 °C 1020.9 hPa Calm     84 % 0 mm WeatherDisplay:10.37 W/m2 FEW
01:00 11.7 °C 9.1 °C 1020.9 hPa Calm     84 % 0 mm WeatherDisplay:10.37 W/m2 FEW
01:05 11.6 °C 9 °C 1020.9 hPa Calm     84 % 0 mm WeatherDisplay:10.37 W/m2 FEW
01:10 11.6 °C 9.1 °C 1020.9 hPa Calm     85 % 0 mm WeatherDisplay:10.37 W/m2 FEW
01:15 11.4 °C 9 °C 1020.9 hPa Calm     85 % 0 mm WeatherDisplay:10.37 W/m2 FEW
01:20 11.4 °C 8.9 °C 1020.9 hPa Calm     85 % 0 mm WeatherDisplay:10.37 W/m2 FEW
01:25 11.3 °C 8.8 °C 1021.2 hPa Calm     85 % 0 mm WeatherDisplay:10.37 W/m2 FEW
01:30 11.2 °C 8.8 °C 1020.9 hPa Calm     85 % 0 mm WeatherDisplay:10.37 W/m2 FEW
01:35 11.1 °C 8.8 °C 1021.2 hPa Calm     86 % 0 mm WeatherDisplay:10.37 W/m2 FEW
01:40 11.1 °C 8.8 °C 1020.9 hPa Calm     86 % 0 mm WeatherDisplay:10.37 W/m2 FEW
01:45 11 °C 8.7 °C 1021.2 hPa Calm     86 % 0 mm WeatherDisplay:10.37 W/m2 FEW
01:50 10.9 °C 8.7 °C 1020.9 hPa Calm     86 % 0 mm WeatherDisplay:10.37 W/m2 FEW
01:55 10.8 °C 8.6 °C 1020.9 hPa Calm     86 % 0 mm WeatherDisplay:10.37 W/m2 FEW
02:00 10.8 °C 8.6 °C 1020.9 hPa Calm     86 % 0 mm WeatherDisplay:10.37 W/m2 FEW
02:05 10.7 °C 8.5 °C 1021.2 hPa Calm     86 % 0 mm WeatherDisplay:10.37 W/m2 FEW
02:10 10.7 °C 8.6 °C 1020.9 hPa Calm     87 % 0 mm WeatherDisplay:10.37 W/m2 FEW
02:15 10.7 °C 8.6 °C 1020.9 hPa Calm     87 % 0 mm WeatherDisplay:10.37 W/m2 FEW
02:20 10.6 °C 8.6 °C 1020.9 hPa Calm     87 % 0 mm WeatherDisplay:10.37 W/m2 FEW
02:25 10.6 °C 8.5 °C 1020.9 hPa Calm     87 % 0 mm WeatherDisplay:10.37 W/m2 FEW
02:30 10.5 °C 8.4 °C 1020.9 hPa Calm     87 % 0 mm WeatherDisplay:10.37 W/m2 FEW
02:35 10.5 °C 8.4 °C 1020.5 hPa Calm     87 % 0 mm WeatherDisplay:10.37 W/m2 FEW
02:40 10.4 °C 8.3 °C 1020.5 hPa Calm     87 % 0 mm WeatherDisplay:10.37 W/m2 FEW
02:45 10.4 °C 8.3 °C 1020.9 hPa Calm     87 % 0 mm WeatherDisplay:10.37 W/m2 FEW
02:50 10.3 °C 8.2 °C 1021.2 hPa Calm     87 % 0 mm WeatherDisplay:10.37 W/m2 FEW
02:55 10.2 °C 8.2 °C 1020.9 hPa Calm     87 % 0 mm WeatherDisplay:10.37 W/m2 FEW
03:00 10.2 °C 8.1 °C 1021.2 hPa Calm     87 % 0 mm WeatherDisplay:10.37 W/m2 FEW
03:05 10.1 °C 8.2 °C 1021.2 hPa Calm     88 % 0 mm WeatherDisplay:10.37 W/m2 FEW
03:10 10.1 °C 8.2 °C 1021.2 hPa Calm     88 % 0 mm WeatherDisplay:10.37 W/m2 FEW
03:15 9.9 °C 8.1 °C 1020.9 hPa Calm     88 % 0 mm WeatherDisplay:10.37 W/m2 FEW
03:20 9.9 °C 8.2 °C 1020.9 hPa Calm     89 % 0 mm WeatherDisplay:10.37 W/m2 FEW
03:25 9.8 °C 8.1 °C 1020.9 hPa Calm     89 % 0 mm WeatherDisplay:10.37 W/m2 FEW
03:30 9.8 °C 8.1 °C 1020.9 hPa Calm     89 % 0 mm WeatherDisplay:10.37 W/m2 FEW
03:35 9.7 °C 8 °C 1020.9 hPa Calm     89 % 0 mm WeatherDisplay:10.37 W/m2 FEW
03:40 9.7 °C 7.9 °C 1020.9 hPa Calm     89 % 0 mm WeatherDisplay:10.37 W/m2 FEW
03:45 9.6 °C 7.9 °C 1020.9 hPa Calm     89 % 0 mm WeatherDisplay:10.37 W/m2 FEW
03:50 9.6 °C 8 °C 1020.9 hPa Calm     90 % 0 mm WeatherDisplay:10.37 W/m2 FEW
03:55 9.6 °C 8.2 °C 1021.2 hPa Calm     91 % 0 mm WeatherDisplay:10.37 W/m2 FEW
04:00 9.6 °C 8.2 °C 1021.2 hPa Calm     91 % 0 mm WeatherDisplay:10.37 W/m2 FEW
04:05 9.6 °C 8.4 °C 1021.6 hPa Calm     92 % 0 mm WeatherDisplay:10.37 W/m2 FEW
04:10 9.7 °C 8.4 °C 1021.6 hPa Calm     92 % 0 mm WeatherDisplay:10.37 W/m2 FEW
04:15 9.8 °C 8.7 °C 1021.2 hPa Calm     93 % 0 mm WeatherDisplay:10.37 W/m2 FEW
04:20 9.9 °C 8.8 °C 1021.2 hPa Calm     93 % 0 mm WeatherDisplay:10.37 W/m2 FEW
04:25 10 °C 9.1 °C 1021.2 hPa Calm     94 % 0 mm WeatherDisplay:10.37 W/m2 FEW
04:30 10.1 °C 9.1 °C 1021.2 hPa Calm     94 % 0 mm WeatherDisplay:10.37 W/m2 FEW
04:35 10.2 °C 9.2 °C 1021.2 hPa Calm     94 % 0 mm WeatherDisplay:10.37 W/m2 FEW
04:40 10.2 °C 9.2 °C 1021.2 hPa Calm   1.6 km/h 94 % 0 mm WeatherDisplay:10.37 W/m2 FEW
04:45 10.2 °C 9.2 °C 1021.2 hPa Calm     94 % 0 mm WeatherDisplay:10.37 W/m2 FEW
04:50 10.2 °C 9.2 °C 1021.6 hPa Calm     94 % 0 mm WeatherDisplay:10.37 W/m2 FEW
04:55 10.2 °C 9.2 °C 1021.6 hPa Calm     94 % 0 mm WeatherDisplay:10.37 W/m2 FEW
05:00 10.2 °C 9.2 °C 1021.6 hPa Calm     94 % 0 mm WeatherDisplay:10.37 W/m2 FEW
05:05 10.2 °C 9.3 °C 1021.6 hPa Calm     94 % 0 mm WeatherDisplay:10.37 W/m2 FEW
05:10 10.2 °C 9.3 °C 1021.6 hPa Calm     94 % 0 mm WeatherDisplay:10.37 W/m2 FEW
05:15 10.2 °C 9.3 °C 1021.6 hPa Calm     94 % 0 mm WeatherDisplay:10.37 W/m2 FEW
05:20 10.2 °C 9.2 °C 1021.9 hPa Calm     94 % 0 mm WeatherDisplay:10.37 W/m2 FEW
05:25 10.2 °C 9.2 °C 1021.9 hPa Calm   1.6 km/h 94 % 0 mm WeatherDisplay:10.37 W/m2 FEW
05:30 10.1 °C 9.2 °C 1021.9 hPa Calm     94 % 0 mm WeatherDisplay:10.37 W/m2 FEW
05:35 10.1 °C 9.2 °C 1021.9 hPa Calm     94 % 0 mm WeatherDisplay:10.37 W/m2 FEW
05:40 10.1 °C 9.2 °C 1022.2 hPa Calm   1.6 km/h 94 % 0 mm WeatherDisplay:10.37 W/m2 FEW
05:45 10.1 °C 9.2 °C 1022.2 hPa Calm   1.6 km/h 94 % 0 mm WeatherDisplay:10.37 W/m2 FEW
05:50 10.1 °C 9.2 °C 1022.2 hPa Calm   1.6 km/h 94 % 0 mm WeatherDisplay:10.37 W/m2 FEW
05:55 10.1 °C 9.1 °C 1022.6 hPa Calm     94 % 0 mm WeatherDisplay:10.37 W/m2 FEW
06:00 10.1 °C 9.1 °C 1021.9 hPa Calm     94 % 0 mm WeatherDisplay:10.37 W/m2 FEW
06:05 10.1 °C 9.1 °C 1021.9 hPa Calm     94 % 0 mm WeatherDisplay:10.37 W/m2 FEW
06:10 10.1 °C 9.1 °C 1021.6 hPa Calm     94 % 0 mm WeatherDisplay:10.37 W/m2 FEW
06:15 10.1 °C 9 °C 1022.2 hPa Calm     93 % 0 mm WeatherDisplay:10.37 W/m2 FEW
06:20 10.1 °C 9.1 °C 1022.9 hPa Calm     94 % 0 mm WeatherDisplay:10.37 W/m2 FEW
06:25 10.1 °C 9 °C 1022.9 hPa Calm     93 % 0 mm WeatherDisplay:10.37 W/m2 FEW
06:30 10.1 °C 9 °C 1022.6 hPa Calm     93 % 0 mm WeatherDisplay:10.37 W/m2 FEW
06:35 10.1 °C 9 °C 1022.9 hPa Calm     93 % 0 mm WeatherDisplay:10.37 W/m2 FEW
06:40 10.1 °C 9 °C 1023.2 hPa Calm     93 % 0 mm WeatherDisplay:10.37 W/m2 FEW
06:45 10.1 °C 9 °C 1023.2 hPa Calm     93 % 0 mm WeatherDisplay:10.37 W/m2 FEW
06:50 10.1 °C 9.1 °C 1022.9 hPa Calm     94 % 0 mm WeatherDisplay:10.37 W/m2 FEW
06:55 10 °C 9.1 °C 1022.9 hPa Calm     94 % 0 mm WeatherDisplay:10.37 W/m2 FEW
07:00 10 °C 8.9 °C 1022.9 hPa Calm     93 % 0 mm WeatherDisplay:10.37 W/m2 FEW
07:05 10 °C 8.9 °C 1022.9 hPa Calm     93 % 0 mm WeatherDisplay:10.37 W/m2 FEW
07:10 10 °C 8.9 °C 1023.2 hPa Calm     93 % 0 mm WeatherDisplay:10.37 W/m2 FEW
07:15 10 °C 8.9 °C 1022.9 hPa Calm     93 % 0 mm WeatherDisplay:10.37 W/m2 FEW
07:20 9.9 °C 8.9 °C 1023.2 hPa Calm     93 % 0 mm WeatherDisplay:10.37 W/m2 FEW
07:25 9.9 °C 8.9 °C 1023.6 hPa Calm     93 % 0 mm WeatherDisplay:10.37 W/m2 FEW
07:30 9.9 °C 8.9 °C 1023.9 hPa Calm     93 % 0 mm WeatherDisplay:10.37 W/m2 FEW
07:35 9.9 °C 8.9 °C 1023.9 hPa Calm     93 % 0 mm WeatherDisplay:10.37 W/m2 FEW
07:40 9.9 °C 8.9 °C 1023.6 hPa Calm     93 % 0 mm WeatherDisplay:10.37 W/m2 FEW
07:45 9.9 °C 8.9 °C 1023.6 hPa Calm     93 % 0 mm WeatherDisplay:10.37 W/m2 FEW
07:50 10 °C 8.9 °C 1023.6 hPa Calm     93 % 0 mm WeatherDisplay:10.37 W/m2 FEW
07:55 10 °C 8.9 °C 1023.6 hPa Calm     93 % 0 mm WeatherDisplay:10.37 W/m2 FEW
08:00 10 °C 8.9 °C 1023.9 hPa Calm     93 % 0 mm WeatherDisplay:10.37 W/m2 FEW
08:05 10 °C 8.9 °C 1024.3 hPa Calm     93 % 0 mm WeatherDisplay:10.37 W/m2 FEW
08:10 10.1 °C 9 °C 1023.9 hPa Calm     93 % 0 mm WeatherDisplay:10.37 W/m2 FEW
08:15 10.1 °C 9.2 °C 1023.6 hPa Calm     94 % 0 mm WeatherDisplay:10.37 W/m2 FEW
08:20 10.2 °C 9.2 °C 1023.9 hPa Calm     94 % 0 mm WeatherDisplay:10.37 W/m2 FEW
08:25 10.2 °C 9.3 °C 1023.9 hPa Calm     94 % 0 mm WeatherDisplay:10.37 W/m2 FEW
08:30 10.2 °C 9.3 °C 1024.3 hPa Calm     94 % 0 mm WeatherDisplay:10.37 W/m2 FEW
08:35 10.3 °C 9.3 °C 1023.9 hPa Calm     94 % 0 mm WeatherDisplay:10.37 W/m2 FEW
08:40 10.4 °C 9.4 °C 1023.9 hPa Calm     94 % 0 mm WeatherDisplay:10.37 W/m2 FEW
08:45 10.4 °C 9.5 °C 1023.6 hPa Calm   1.6 km/h 94 % 0 mm WeatherDisplay:10.37 W/m2 FEW
08:50 10.5 °C 9.6 °C 1023.6 hPa Calm     94 % 0 mm WeatherDisplay:10.37 W/m2 FEW
08:55 10.6 °C 9.6 °C 1023.6 hPa Calm     94 % 0 mm WeatherDisplay:10.37 W/m2 FEW
09:00 10.6 °C 9.7 °C 1023.6 hPa Calm   3.2 km/h 94 % 0 mm WeatherDisplay:10.37 W/m2 FEW
09:05 10.7 °C 9.7 °C 1024.3 hPa Calm     94 % 0 mm WeatherDisplay:10.37 W/m2 FEW
09:10 10.7 °C 9.8 °C 1024.3 hPa Calm   3.2 km/h 94 % 0 mm WeatherDisplay:10.37 W/m2 FEW
09:15 10.7 °C 9.6 °C 1024.3 hPa Calm     93 % 0 mm WeatherDisplay:10.37 W/m2 FEW
09:20 10.7 °C 9.6 °C 1023.9 hPa Calm     93 % 0 mm WeatherDisplay:10.37 W/m2 FEW
09:25 10.7 °C 9.6 °C 1023.6 hPa Calm     93 % 0 mm WeatherDisplay:10.37 W/m2 FEW
09:30 10.7 °C 9.6 °C 1023.9 hPa Calm     93 % 0 mm WeatherDisplay:10.37 W/m2 FEW
09:35 10.7 °C 9.5 °C 1023.6 hPa Calm     92 % 0 mm WeatherDisplay:10.37 W/m2 FEW
09:40 10.7 °C 9.5 °C 1023.9 hPa Calm     92 % 0 mm WeatherDisplay:10.37 W/m2 FEW
09:45 10.8 °C 9.6 °C 1024.3 hPa Calm     92 % 0 mm WeatherDisplay:10.37 W/m2 FEW
09:50 10.8 °C 9.6 °C 1023.9 hPa Calm     92 % 0 mm WeatherDisplay:10.37 W/m2 FEW
09:55 10.8 °C 9.6 °C 1023.9 hPa Calm     92 % 0 mm WeatherDisplay:10.37 W/m2 FEW
10:00 10.8 °C 9.6 °C 1023.9 hPa Calm     92 % 0 mm WeatherDisplay:10.37 W/m2 FEW
10:05 10.8 °C 9.6 °C 1023.6 hPa Calm     92 % 0 mm WeatherDisplay:10.37 W/m2 FEW
10:10 10.8 °C 9.6 °C 1023.6 hPa Calm     92 % 0 mm WeatherDisplay:10.37 W/m2 FEW
10:15 10.8 °C 9.6 °C 1023.6 hPa Calm   1.6 km/h 92 % 0 mm WeatherDisplay:10.37 W/m2 FEW
10:20 10.9 °C 9.7 °C 1023.6 hPa Calm   1.6 km/h 92 % 0 mm WeatherDisplay:10.37 W/m2 FEW
10:25 10.9 °C 9.7 °C 1023.9 hPa Calm     92 % 0 mm WeatherDisplay:10.37 W/m2 FEW
10:30 10.9 °C 9.6 °C 1023.6 hPa Calm     91 % 0 mm WeatherDisplay:10.37 W/m2 FEW
10:35 10.9 °C 9.6 °C 1023.9 hPa Calm   1.6 km/h 91 % 0 mm WeatherDisplay:10.37 W/m2 FEW
10:40 11 °C 9.8 °C 1023.9 hPa Calm     92 % 0 mm WeatherDisplay:10.37 W/m2 FEW
10:45 11.1 °C 9.8 °C 1023.9 hPa Calm     92 % 0 mm WeatherDisplay:10.37 W/m2 FEW
10:50 11.2 °C 9.9 °C 1023.6 hPa Calm     92 % 0 mm WeatherDisplay:10.37 W/m2 FEW
10:55 11.3 °C 9.9 °C 1023.6 hPa Calm     91 % 0 mm WeatherDisplay:10.37 W/m2 FEW
11:00 11.4 °C 10 °C 1023.9 hPa Calm   1.6 km/h 91 % 0 mm WeatherDisplay:10.37 W/m2 FEW
11:05 11.5 °C 10.1 °C 1023.9 hPa Calm     91 % 0 mm WeatherDisplay:10.37 W/m2 FEW
11:10 11.6 °C 10.1 °C 1023.9 hPa Calm   3.2 km/h 91 % 0 mm WeatherDisplay:10.37 W/m2 FEW
11:15 11.6 °C 10 °C 1023.9 hPa Calm     90 % 0 mm WeatherDisplay:10.37 W/m2 FEW
11:20 11.7 °C 10.1 °C 1023.9 hPa Calm   1.6 km/h 90 % 0 mm WeatherDisplay:10.37 W/m2 FEW
11:25 11.8 °C 10 °C 1023.9 hPa Calm     89 % 0 mm WeatherDisplay:10.37 W/m2 FEW
11:30 11.8 °C 10.1 °C 1023.9 hPa Calm   3.2 km/h 89 % 0 mm WeatherDisplay:10.37 W/m2 FEW
11:35 11.9 °C 10.2 °C 1023.9 hPa Calm     89 % 0 mm WeatherDisplay:10.37 W/m2 FEW
Juneau County Weather
Compliments of Weather Underground - 2 mb